sensor_id;sensor_type;location;lat;lon;timestamp;P1;durP1;ratioP1;P2;durP2;ratioP2
32826;SDS011;51059;42.058;27.986;2024-01-30T00:00:31;38.77;;;21.50;;
32826;SDS011;51059;42.058;27.986;2024-01-30T00:02:57;36.10;;;21.47;;
32826;SDS011;51059;42.058;27.986;2024-01-30T00:05:23;41.53;;;20.93;;
32826;SDS011;51059;42.058;27.986;2024-01-30T00:07:50;44.83;;;21.43;;
32826;SDS011;51059;42.058;27.986;2024-01-30T00:10:16;28.07;;;17.37;;
32826;SDS011;51059;42.058;27.986;2024-01-30T00:12:42;32.67;;;20.27;;
32826;SDS011;51059;42.058;27.986;2024-01-30T00:15:07;32.37;;;20.07;;
32826;SDS011;51059;42.058;27.986;2024-01-30T00:18:26;34.03;;;21.97;;
32826;SDS011;51059;42.058;27.986;2024-01-30T00:21:50;35.47;;;19.43;;
32826;SDS011;51059;42.058;27.986;2024-01-30T00:24:16;37.40;;;23.70;;
32826;SDS011;51059;42.058;27.986;2024-01-30T00:26:42;37.83;;;24.47;;
32826;SDS011;51059;42.058;27.986;2024-01-30T00:29:08;41.27;;;22.97;;
32826;SDS011;51059;42.058;27.986;2024-01-30T00:31:34;29.13;;;17.13;;
32826;SDS011;51059;42.058;27.986;2024-01-30T00:34:01;32.43;;;19.43;;
32826;SDS011;51059;42.058;27.986;2024-01-30T00:36:26;56.23;;;25.93;;
32826;SDS011;51059;42.058;27.986;2024-01-30T00:38:55;37.33;;;22.80;;
32826;SDS011;51059;42.058;27.986;2024-01-30T00:41:22;38.50;;;22.60;;
32826;SDS011;51059;42.058;27.986;2024-01-30T00:43:48;42.93;;;25.80;;
32826;SDS011;51059;42.058;27.986;2024-01-30T00:46:13;49.73;;;27.60;;
32826;SDS011;51059;42.058;27.986;2024-01-30T00:48:39;18.93;;;9.50;;
32826;SDS011;51059;42.058;27.986;2024-01-30T00:51:26;35.73;;;12.90;;
32826;SDS011;51059;42.058;27.986;2024-01-30T00:53:54;27.20;;;11.60;;
32826;SDS011;51059;42.058;27.986;2024-01-30T00:56:20;28.63;;;12.33;;
32826;SDS011;51059;42.058;27.986;2024-01-30T00:58:46;31.87;;;14.30;;
32826;SDS011;51059;42.058;27.986;2024-01-30T01:01:12;28.80;;;14.70;;
32826;SDS011;51059;42.058;27.986;2024-01-30T01:03:38;27.43;;;13.67;;
32826;SDS011;51059;42.058;27.986;2024-01-30T01:06:06;39.10;;;19.67;;
32826;SDS011;51059;42.058;27.986;2024-01-30T01:08:31;39.17;;;19.97;;
32826;SDS011;51059;42.058;27.986;2024-01-30T01:10:57;36.57;;;19.70;;
32826;SDS011;51059;42.058;27.986;2024-01-30T01:13:23;37.00;;;20.57;;
32826;SDS011;51059;42.058;27.986;2024-01-30T01:15:49;38.67;;;21.40;;
32826;SDS011;51059;42.058;27.986;2024-01-30T01:18:15;35.23;;;19.47;;
32826;SDS011;51059;42.058;27.986;2024-01-30T01:20:41;34.20;;;20.67;;
32826;SDS011;51059;42.058;27.986;2024-01-30T01:23:07;41.30;;;20.87;;
32826;SDS011;51059;42.058;27.986;2024-01-30T01:25:32;31.27;;;16.20;;
32826;SDS011;51059;42.058;27.986;2024-01-30T01:27:58;36.03;;;16.97;;
32826;SDS011;51059;42.058;27.986;2024-01-30T01:30:26;34.50;;;17.40;;
32826;SDS011;51059;42.058;27.986;2024-01-30T01:32:54;33.47;;;17.47;;
32826;SDS011;51059;42.058;27.986;2024-01-30T01:35:23;37.97;;;18.40;;
32826;SDS011;51059;42.058;27.986;2024-01-30T01:37:53;31.03;;;19.07;;
32826;SDS011;51059;42.058;27.986;2024-01-30T01:40:23;35.47;;;20.80;;
32826;SDS011;51059;42.058;27.986;2024-01-30T01:42:50;34.70;;;20.67;;
32826;SDS011;51059;42.058;27.986;2024-01-30T01:45:18;32.30;;;20.83;;
32826;SDS011;51059;42.058;27.986;2024-01-30T01:47:47;45.00;;;21.60;;
32826;SDS011;51059;42.058;27.986;2024-01-30T01:50:16;31.57;;;16.17;;
32826;SDS011;51059;42.058;27.986;2024-01-30T01:52:48;32.13;;;17.57;;
32826;SDS011;51059;42.058;27.986;2024-01-30T01:55:14;37.97;;;20.17;;
32826;SDS011;51059;42.058;27.986;2024-01-30T01:57:44;35.63;;;18.50;;
32826;SDS011;51059;42.058;27.986;2024-01-30T02:00:10;32.13;;;17.37;;
32826;SDS011;51059;42.058;27.986;2024-01-30T02:02:37;31.60;;;17.43;;
32826;SDS011;51059;42.058;27.986;2024-01-30T02:05:05;28.83;;;17.57;;
32826;SDS011;51059;42.058;27.986;2024-01-30T02:07:31;33.23;;;17.13;;
32826;SDS011;51059;42.058;27.986;2024-01-30T02:09:57;34.97;;;19.30;;
32826;SDS011;51059;42.058;27.986;2024-01-30T02:12:23;34.47;;;18.30;;
32826;SDS011;51059;42.058;27.986;2024-01-30T02:14:49;37.70;;;20.10;;
32826;SDS011;51059;42.058;27.986;2024-01-30T02:17:15;42.17;;;15.47;;
32826;SDS011;51059;42.058;27.986;2024-01-30T02:19:41;29.13;;;11.73;;
32826;SDS011;51059;42.058;27.986;2024-01-30T02:22:07;30.50;;;11.97;;
32826;SDS011;51059;42.058;27.986;2024-01-30T02:24:34;43.70;;;15.73;;
32826;SDS011;51059;42.058;27.986;2024-01-30T02:27:00;42.87;;;14.83;;
32826;SDS011;51059;42.058;27.986;2024-01-30T02:29:57;57.63;;;22.73;;
32826;SDS011;51059;42.058;27.986;2024-01-30T02:32:24;41.23;;;22.07;;
32826;SDS011;51059;42.058;27.986;2024-01-30T04:45:09;26.97;;;12.13;;
32826;SDS011;51059;42.058;27.986;2024-01-30T04:47:35;22.03;;;10.93;;
32826;SDS011;51059;42.058;27.986;2024-01-30T04:50:01;32.27;;;12.33;;
32826;SDS011;51059;42.058;27.986;2024-01-30T05:04:07;28.77;;;8.97;;
32826;SDS011;51059;42.058;27.986;2024-01-30T05:06:34;22.90;;;7.50;;
32826;SDS011;51059;42.058;27.986;2024-01-30T05:09:00;27.00;;;8.47;;
32826;SDS011;51059;42.058;27.986;2024-01-30T05:11:26;17.60;;;4.53;;
32826;SDS011;51059;42.058;27.986;2024-01-30T05:13:52;17.13;;;5.30;;
32826;SDS011;51059;42.058;27.986;2024-01-30T05:16:18;22.17;;;6.83;;
32826;SDS011;51059;42.058;27.986;2024-01-30T05:18:44;31.53;;;12.50;;
32826;SDS011;51059;42.058;27.986;2024-01-30T05:21:10;29.83;;;14.60;;
32826;SDS011;51059;42.058;27.986;2024-01-30T05:23:36;38.47;;;16.53;;
32826;SDS011;51059;42.058;27.986;2024-01-30T05:26:02;39.37;;;19.10;;
32826;SDS011;51059;42.058;27.986;2024-01-30T05:28:31;39.73;;;20.20;;
32826;SDS011;51059;42.058;27.986;2024-01-30T05:30:58;34.80;;;19.90;;
32826;SDS011;51059;42.058;27.986;2024-01-30T05:33:24;36.90;;;20.07;;
32826;SDS011;51059;42.058;27.986;2024-01-30T05:35:50;46.50;;;20.60;;
32826;SDS011;51059;42.058;27.986;2024-01-30T05:38:19;34.53;;;13.93;;
32826;SDS011;51059;42.058;27.986;2024-01-30T05:40:47;24.43;;;10.47;;
32826;SDS011;51059;42.058;27.986;2024-01-30T05:43:13;28.63;;;11.30;;
32826;SDS011;51059;42.058;27.986;2024-01-30T05:45:40;27.13;;;10.57;;
32826;SDS011;51059;42.058;27.986;2024-01-30T05:48:06;24.93;;;9.43;;
32826;SDS011;51059;42.058;27.986;2024-01-30T05:50:32;23.30;;;9.27;;
32826;SDS011;51059;42.058;27.986;2024-01-30T05:52:58;34.83;;;13.23;;
32826;SDS011;51059;42.058;27.986;2024-01-30T05:55:24;32.30;;;13.63;;
32826;SDS011;51059;42.058;27.986;2024-01-30T05:57:50;33.83;;;14.10;;
32826;SDS011;51059;42.058;27.986;2024-01-30T06:28:41;37.70;;;13.57;;
32826;SDS011;51059;42.058;27.986;2024-01-30T06:31:07;24.20;;;7.47;;
32826;SDS011;51059;42.058;27.986;2024-01-30T06:33:32;22.83;;;7.23;;
32826;SDS011;51059;42.058;27.986;2024-01-30T06:35:58;19.97;;;8.63;;
32826;SDS011;51059;42.058;27.986;2024-01-30T06:38:24;28.93;;;11.83;;
32826;SDS011;51059;42.058;27.986;2024-01-30T06:40:50;39.47;;;15.50;;
32826;SDS011;51059;42.058;27.986;2024-01-30T06:43:17;37.30;;;15.60;;
32826;SDS011;51059;42.058;27.986;2024-01-30T06:45:43;30.27;;;13.03;;
32826;SDS011;51059;42.058;27.986;2024-01-30T06:48:09;28.43;;;13.53;;
32826;SDS011;51059;42.058;27.986;2024-01-30T06:50:35;27.03;;;13.33;;
32826;SDS011;51059;42.058;27.986;2024-01-30T06:53:01;33.20;;;14.67;;
32826;SDS011;51059;42.058;27.986;2024-01-30T06:55:27;33.67;;;14.07;;
32826;SDS011;51059;42.058;27.986;2024-01-30T06:57:53;34.67;;;13.20;;
32826;SDS011;51059;42.058;27.986;2024-01-30T07:00:18;28.63;;;11.00;;
32826;SDS011;51059;42.058;27.986;2024-01-30T07:02:44;25.33;;;8.50;;
32826;SDS011;51059;42.058;27.986;2024-01-30T07:05:11;20.47;;;7.37;;
32826;SDS011;51059;42.058;27.986;2024-01-30T07:07:38;19.97;;;7.17;;
32826;SDS011;51059;42.058;27.986;2024-01-30T07:10:05;19.60;;;9.10;;
32826;SDS011;51059;42.058;27.986;2024-01-30T07:12:32;22.07;;;9.90;;
32826;SDS011;51059;42.058;27.986;2024-01-30T07:14:58;27.33;;;11.67;;
32826;SDS011;51059;42.058;27.986;2024-01-30T07:17:24;27.23;;;13.63;;
32826;SDS011;51059;42.058;27.986;2024-01-30T07:19:50;33.30;;;10.87;;
32826;SDS011;51059;42.058;27.986;2024-01-30T07:22:16;28.03;;;7.90;;
32826;SDS011;51059;42.058;27.986;2024-01-30T07:24:43;15.57;;;5.90;;
32826;SDS011;51059;42.058;27.986;2024-01-30T07:27:13;16.37;;;6.20;;
32826;SDS011;51059;42.058;27.986;2024-01-30T07:29:39;20.17;;;6.47;;
32826;SDS011;51059;42.058;27.986;2024-01-30T07:32:06;18.27;;;7.27;;
32826;SDS011;51059;42.058;27.986;2024-01-30T07:34:32;25.03;;;8.70;;
32826;SDS011;51059;42.058;27.986;2024-01-30T07:36:57;25.30;;;7.97;;
32826;SDS011;51059;42.058;27.986;2024-01-30T07:39:23;23.23;;;8.63;;
32826;SDS011;51059;42.058;27.986;2024-01-30T07:41:49;14.40;;;5.20;;
32826;SDS011;51059;42.058;27.986;2024-01-30T07:44:15;18.47;;;5.93;;
32826;SDS011;51059;42.058;27.986;2024-01-30T07:46:41;19.90;;;6.27;;
32826;SDS011;51059;42.058;27.986;2024-01-30T07:49:07;29.93;;;13.03;;
32826;SDS011;51059;42.058;27.986;2024-01-30T07:51:32;32.90;;;15.13;;
32826;SDS011;51059;42.058;27.986;2024-01-30T07:53:58;30.13;;;13.63;;
32826;SDS011;51059;42.058;27.986;2024-01-30T07:56:24;23.83;;;10.80;;
32826;SDS011;51059;42.058;27.986;2024-01-30T07:58:50;27.87;;;10.00;;
32826;SDS011;51059;42.058;27.986;2024-01-30T08:01:17;22.23;;;7.97;;
32826;SDS011;51059;42.058;27.986;2024-01-30T08:03:43;22.57;;;7.47;;
32826;SDS011;51059;42.058;27.986;2024-01-30T08:06:09;13.97;;;5.77;;
32826;SDS011;51059;42.058;27.986;2024-01-30T08:08:35;14.33;;;6.83;;
32826;SDS011;51059;42.058;27.986;2024-01-30T08:11:01;16.93;;;6.87;;
32826;SDS011;51059;42.058;27.986;2024-01-30T08:13:27;20.10;;;6.63;;
32826;SDS011;51059;42.058;27.986;2024-01-30T08:15:53;11.23;;;5.10;;
32826;SDS011;51059;42.058;27.986;2024-01-30T08:18:19;10.33;;;4.70;;
32826;SDS011;51059;42.058;27.986;2024-01-30T08:20:45;18.30;;;6.20;;
32826;SDS011;51059;42.058;27.986;2024-01-30T08:23:11;15.77;;;5.17;;
32826;SDS011;51059;42.058;27.986;2024-01-30T08:25:37;15.63;;;6.10;;
32826;SDS011;51059;42.058;27.986;2024-01-30T08:28:03;17.17;;;6.57;;
32826;SDS011;51059;42.058;27.986;2024-01-30T08:30:29;17.80;;;5.70;;
32826;SDS011;51059;42.058;27.986;2024-01-30T08:32:56;15.47;;;5.20;;
32826;SDS011;51059;42.058;27.986;2024-01-30T08:35:22;17.47;;;6.37;;
32826;SDS011;51059;42.058;27.986;2024-01-30T08:37:48;16.50;;;6.07;;
32826;SDS011;51059;42.058;27.986;2024-01-30T08:40:14;19.43;;;7.17;;
32826;SDS011;51059;42.058;27.986;2024-01-30T08:42:40;23.87;;;14.67;;
32826;SDS011;51059;42.058;27.986;2024-01-30T08:45:05;21.23;;;12.07;;
32826;SDS011;51059;42.058;27.986;2024-01-30T08:47:32;20.47;;;8.67;;
32826;SDS011;51059;42.058;27.986;2024-01-30T08:49:58;17.13;;;7.27;;
32826;SDS011;51059;42.058;27.986;2024-01-30T08:52:24;29.57;;;15.87;;
32826;SDS011;51059;42.058;27.986;2024-01-30T08:54:50;25.30;;;14.27;;
32826;SDS011;51059;42.058;27.986;2024-01-30T08:57:16;24.17;;;12.13;;
32826;SDS011;51059;42.058;27.986;2024-01-30T09:49:26;23.90;;;9.80;;
32826;SDS011;51059;42.058;27.986;2024-01-30T12:01:25;19.53;;;6.83;;
32826;SDS011;51059;42.058;27.986;2024-01-30T12:03:52;17.43;;;6.83;;
32826;SDS011;51059;42.058;27.986;2024-01-30T12:06:18;20.97;;;7.90;;
32826;SDS011;51059;42.058;27.986;2024-01-30T12:09:06;14.93;;;6.03;;
32826;SDS011;51059;42.058;27.986;2024-01-30T12:11:56;21.30;;;7.23;;
32826;SDS011;51059;42.058;27.986;2024-01-30T12:14:22;21.30;;;6.73;;
32826;SDS011;51059;42.058;27.986;2024-01-30T12:16:48;20.67;;;6.33;;
32826;SDS011;51059;42.058;27.986;2024-01-30T12:19:23;20.70;;;6.87;;
32826;SDS011;51059;42.058;27.986;2024-01-30T12:21:55;16.83;;;5.50;;
32826;SDS011;51059;42.058;27.986;2024-01-30T12:24:24;14.43;;;5.83;;
32826;SDS011;51059;42.058;27.986;2024-01-30T12:26:51;17.50;;;6.30;;
32826;SDS011;51059;42.058;27.986;2024-01-30T12:29:19;22.30;;;8.17;;
32826;SDS011;51059;42.058;27.986;2024-01-30T12:31:47;20.43;;;6.80;;
32826;SDS011;51059;42.058;27.986;2024-01-30T12:34:16;21.20;;;7.63;;
32826;SDS011;51059;42.058;27.986;2024-01-30T12:36:42;17.40;;;7.80;;
32826;SDS011;51059;42.058;27.986;2024-01-30T12:39:12;25.47;;;10.00;;
32826;SDS011;51059;42.058;27.986;2024-01-30T12:41:39;24.53;;;7.90;;
32826;SDS011;51059;42.058;27.986;2024-01-30T12:44:06;23.27;;;7.93;;
32826;SDS011;51059;42.058;27.986;2024-01-30T12:46:34;24.57;;;7.93;;
32826;SDS011;51059;42.058;27.986;2024-01-30T12:49:00;32.97;;;10.97;;
32826;SDS011;51059;42.058;27.986;2024-01-30T12:51:26;19.20;;;7.30;;
32826;SDS011;51059;42.058;27.986;2024-01-30T12:53:51;21.60;;;6.37;;
32826;SDS011;51059;42.058;27.986;2024-01-30T12:56:17;14.73;;;5.50;;
32826;SDS011;51059;42.058;27.986;2024-01-30T12:58:44;17.87;;;5.73;;
32826;SDS011;51059;42.058;27.986;2024-01-30T13:01:11;23.77;;;7.57;;
32826;SDS011;51059;42.058;27.986;2024-01-30T13:03:37;23.53;;;6.67;;
32826;SDS011;51059;42.058;27.986;2024-01-30T13:06:03;29.50;;;9.47;;
32826;SDS011;51059;42.058;27.986;2024-01-30T13:08:29;16.53;;;6.80;;
32826;SDS011;51059;42.058;27.986;2024-01-30T13:10:54;20.00;;;8.70;;
32826;SDS011;51059;42.058;27.986;2024-01-30T13:13:20;21.43;;;9.47;;
32826;SDS011;51059;42.058;27.986;2024-01-30T13:15:48;31.83;;;9.97;;
32826;SDS011;51059;42.058;27.986;2024-01-30T13:18:13;29.20;;;9.47;;
32826;SDS011;51059;42.058;27.986;2024-01-30T13:20:39;23.93;;;9.23;;
32826;SDS011;51059;42.058;27.986;2024-01-30T13:23:05;28.73;;;9.63;;
32826;SDS011;51059;42.058;27.986;2024-01-30T13:25:31;45.67;;;15.47;;
32826;SDS011;51059;42.058;27.986;2024-01-30T13:27:57;24.17;;;9.23;;
32826;SDS011;51059;42.058;27.986;2024-01-30T13:30:23;28.53;;;9.93;;
32826;SDS011;51059;42.058;27.986;2024-01-30T13:32:49;20.03;;;7.97;;
32826;SDS011;51059;42.058;27.986;2024-01-30T13:35:15;27.93;;;9.90;;
32826;SDS011;51059;42.058;27.986;2024-01-30T13:37:41;16.27;;;6.37;;
32826;SDS011;51059;42.058;27.986;2024-01-30T13:40:08;18.97;;;7.40;;
32826;SDS011;51059;42.058;27.986;2024-01-30T13:42:34;19.20;;;7.23;;
32826;SDS011;51059;42.058;27.986;2024-01-30T13:45:00;25.40;;;10.00;;
32826;SDS011;51059;42.058;27.986;2024-01-30T13:47:26;21.87;;;7.77;;
32826;SDS011;51059;42.058;27.986;2024-01-30T13:49:53;19.10;;;7.33;;
32826;SDS011;51059;42.058;27.986;2024-01-30T13:52:20;14.43;;;6.20;;
32826;SDS011;51059;42.058;27.986;2024-01-30T13:54:45;21.00;;;6.33;;
32826;SDS011;51059;42.058;27.986;2024-01-30T13:57:11;18.80;;;5.50;;
32826;SDS011;51059;42.058;27.986;2024-01-30T13:59:37;19.03;;;7.90;;
32826;SDS011;51059;42.058;27.986;2024-01-30T14:02:03;20.87;;;7.97;;
32826;SDS011;51059;42.058;27.986;2024-01-30T14:04:29;22.07;;;7.10;;
32826;SDS011;51059;42.058;27.986;2024-01-30T14:06:55;27.37;;;9.00;;
32826;SDS011;51059;42.058;27.986;2024-01-30T14:09:22;18.27;;;8.83;;
32826;SDS011;51059;42.058;27.986;2024-01-30T14:11:48;20.30;;;7.03;;
32826;SDS011;51059;42.058;27.986;2024-01-30T14:14:14;24.17;;;8.43;;
32826;SDS011;51059;42.058;27.986;2024-01-30T14:16:41;16.80;;;5.53;;
32826;SDS011;51059;42.058;27.986;2024-01-30T14:19:07;16.13;;;7.63;;
32826;SDS011;51059;42.058;27.986;2024-01-30T14:21:33;25.37;;;9.63;;
32826;SDS011;51059;42.058;27.986;2024-01-30T14:23:59;21.27;;;8.50;;
32826;SDS011;51059;42.058;27.986;2024-01-30T14:26:25;20.23;;;7.17;;
32826;SDS011;51059;42.058;27.986;2024-01-30T14:28:51;27.10;;;8.00;;
32826;SDS011;51059;42.058;27.986;2024-01-30T14:31:16;19.40;;;7.87;;
32826;SDS011;51059;42.058;27.986;2024-01-30T14:33:44;24.67;;;9.57;;
32826;SDS011;51059;42.058;27.986;2024-01-30T14:36:10;23.97;;;9.90;;
32826;SDS011;51059;42.058;27.986;2024-01-30T14:38:36;25.77;;;9.50;;
32826;SDS011;51059;42.058;27.986;2024-01-30T14:41:02;27.77;;;9.93;;
32826;SDS011;51059;42.058;27.986;2024-01-30T14:43:29;16.87;;;6.70;;
32826;SDS011;51059;42.058;27.986;2024-01-30T14:45:55;20.97;;;8.47;;
32826;SDS011;51059;42.058;27.986;2024-01-30T14:48:20;25.77;;;9.53;;
32826;SDS011;51059;42.058;27.986;2024-01-30T14:50:46;24.10;;;9.67;;
32826;SDS011;51059;42.058;27.986;2024-01-30T14:53:14;35.57;;;11.30;;
32826;SDS011;51059;42.058;27.986;2024-01-30T14:55:40;27.70;;;9.97;;
32826;SDS011;51059;42.058;27.986;2024-01-30T14:58:06;18.03;;;7.03;;
32826;SDS011;51059;42.058;27.986;2024-01-30T15:00:32;26.77;;;9.63;;
32826;SDS011;51059;42.058;27.986;2024-01-30T15:02:57;26.83;;;8.33;;
32826;SDS011;51059;42.058;27.986;2024-01-30T15:05:42;24.17;;;7.83;;
32826;SDS011;51059;42.058;27.986;2024-01-30T15:08:08;24.17;;;7.10;;
32826;SDS011;51059;42.058;27.986;2024-01-30T15:11:03;24.50;;;8.00;;
32826;SDS011;51059;42.058;27.986;2024-01-30T15:14:22;17.73;;;6.90;;
32826;SDS011;51059;42.058;27.986;2024-01-30T15:17:40;28.17;;;11.33;;
32826;SDS011;51059;42.058;27.986;2024-01-30T15:20:20;23.47;;;8.43;;
32826;SDS011;51059;42.058;27.986;2024-01-30T15:23:38;24.40;;;9.87;;
32826;SDS011;51059;42.058;27.986;2024-01-30T15:26:57;20.00;;;7.20;;
32826;SDS011;51059;42.058;27.986;2024-01-30T15:30:16;20.33;;;9.80;;
32826;SDS011;51059;42.058;27.986;2024-01-30T15:33:34;21.20;;;8.03;;
32826;SDS011;51059;42.058;27.986;2024-01-30T15:36:23;23.37;;;8.80;;
32826;SDS011;51059;42.058;27.986;2024-01-30T15:39:41;28.17;;;11.87;;
32826;SDS011;51059;42.058;27.986;2024-01-30T15:42:07;23.47;;;8.57;;
32826;SDS011;51059;42.058;27.986;2024-01-30T15:45:25;21.13;;;7.63;;
32826;SDS011;51059;42.058;27.986;2024-01-30T15:48:03;28.40;;;10.50;;
32826;SDS011;51059;42.058;27.986;2024-01-30T15:50:29;23.07;;;7.43;;
32826;SDS011;51059;42.058;27.986;2024-01-30T15:52:55;19.50;;;6.97;;
32826;SDS011;51059;42.058;27.986;2024-01-30T15:55:21;14.67;;;5.27;;
32826;SDS011;51059;42.058;27.986;2024-01-30T15:57:47;13.67;;;5.27;;
32826;SDS011;51059;42.058;27.986;2024-01-30T16:00:14;21.07;;;7.73;;
32826;SDS011;51059;42.058;27.986;2024-01-30T16:02:40;22.70;;;7.67;;
32826;SDS011;51059;42.058;27.986;2024-01-30T16:05:06;17.73;;;6.23;;
32826;SDS011;51059;42.058;27.986;2024-01-30T16:07:38;18.13;;;7.13;;
32826;SDS011;51059;42.058;27.986;2024-01-30T16:10:04;10.93;;;4.97;;
32826;SDS011;51059;42.058;27.986;2024-01-30T16:12:30;10.43;;;5.17;;
32826;SDS011;51059;42.058;27.986;2024-01-30T16:14:56;24.37;;;8.30;;
32826;SDS011;51059;42.058;27.986;2024-01-30T16:17:22;24.53;;;9.03;;
32826;SDS011;51059;42.058;27.986;2024-01-30T16:19:48;23.20;;;10.87;;
32826;SDS011;51059;42.058;27.986;2024-01-30T16:22:16;14.33;;;5.80;;
32826;SDS011;51059;42.058;27.986;2024-01-30T16:24:42;16.47;;;6.47;;
32826;SDS011;51059;42.058;27.986;2024-01-30T16:27:09;20.00;;;8.50;;
32826;SDS011;51059;42.058;27.986;2024-01-30T16:29:34;29.53;;;9.80;;
32826;SDS011;51059;42.058;27.986;2024-01-30T16:32:03;21.67;;;9.53;;
32826;SDS011;51059;42.058;27.986;2024-01-30T16:34:29;25.90;;;7.90;;
32826;SDS011;51059;42.058;27.986;2024-01-30T16:36:55;15.80;;;6.27;;
32826;SDS011;51059;42.058;27.986;2024-01-30T16:39:21;14.30;;;7.17;;
32826;SDS011;51059;42.058;27.986;2024-01-30T16:41:47;24.60;;;10.37;;
32826;SDS011;51059;42.058;27.986;2024-01-30T16:44:33;19.10;;;7.23;;
32826;SDS011;51059;42.058;27.986;2024-01-30T16:47:51;23.20;;;7.40;;
32826;SDS011;51059;42.058;27.986;2024-01-30T16:50:16;21.90;;;8.70;;
32826;SDS011;51059;42.058;27.986;2024-01-30T16:52:42;23.30;;;8.00;;
32826;SDS011;51059;42.058;27.986;2024-01-30T16:55:08;23.60;;;8.27;;
32826;SDS011;51059;42.058;27.986;2024-01-30T16:57:34;15.73;;;6.00;;
32826;SDS011;51059;42.058;27.986;2024-01-30T17:00:00;14.97;;;7.37;;
32826;SDS011;51059;42.058;27.986;2024-01-30T17:02:25;20.10;;;6.90;;
32826;SDS011;51059;42.058;27.986;2024-01-30T17:04:51;16.83;;;7.07;;
32826;SDS011;51059;42.058;27.986;2024-01-30T17:07:17;14.67;;;6.23;;
32826;SDS011;51059;42.058;27.986;2024-01-30T17:09:43;16.90;;;7.30;;
32826;SDS011;51059;42.058;27.986;2024-01-30T17:12:09;23.97;;;8.37;;
32826;SDS011;51059;42.058;27.986;2024-01-30T17:14:37;23.60;;;9.00;;
32826;SDS011;51059;42.058;27.986;2024-01-30T17:17:04;17.70;;;7.23;;
32826;SDS011;51059;42.058;27.986;2024-01-30T17:19:30;18.03;;;6.10;;
32826;SDS011;51059;42.058;27.986;2024-01-30T17:21:56;16.40;;;6.43;;
32826;SDS011;51059;42.058;27.986;2024-01-30T17:24:22;19.77;;;7.90;;
32826;SDS011;51059;42.058;27.986;2024-01-30T17:26:48;23.50;;;9.10;;
32826;SDS011;51059;42.058;27.986;2024-01-30T17:29:15;23.43;;;8.13;;
32826;SDS011;51059;42.058;27.986;2024-01-30T17:31:41;21.47;;;5.57;;
32826;SDS011;51059;42.058;27.986;2024-01-30T17:34:09;23.77;;;7.70;;
32826;SDS011;51059;42.058;27.986;2024-01-30T17:36:36;29.10;;;8.03;;
32826;SDS011;51059;42.058;27.986;2024-01-30T17:39:02;20.70;;;6.83;;
32826;SDS011;51059;42.058;27.986;2024-01-30T17:41:28;22.63;;;6.97;;
32826;SDS011;51059;42.058;27.986;2024-01-30T17:43:54;21.13;;;7.53;;
32826;SDS011;51059;42.058;27.986;2024-01-30T17:46:20;16.83;;;6.53;;
32826;SDS011;51059;42.058;27.986;2024-01-30T17:48:46;23.03;;;7.40;;
32826;SDS011;51059;42.058;27.986;2024-01-30T17:51:11;16.03;;;6.13;;
32826;SDS011;51059;42.058;27.986;2024-01-30T17:53:37;17.83;;;8.10;;
32826;SDS011;51059;42.058;27.986;2024-01-30T17:56:03;15.57;;;6.13;;
32826;SDS011;51059;42.058;27.986;2024-01-30T17:58:31;21.07;;;6.87;;
32826;SDS011;51059;42.058;27.986;2024-01-30T18:00:57;19.57;;;6.60;;
32826;SDS011;51059;42.058;27.986;2024-01-30T18:03:26;24.20;;;8.23;;
32826;SDS011;51059;42.058;27.986;2024-01-30T18:05:52;22.03;;;7.20;;
32826;SDS011;51059;42.058;27.986;2024-01-30T18:08:19;21.23;;;7.03;;
32826;SDS011;51059;42.058;27.986;2024-01-30T18:10:46;17.87;;;6.27;;
32826;SDS011;51059;42.058;27.986;2024-01-30T18:13:12;22.77;;;8.20;;
32826;SDS011;51059;42.058;27.986;2024-01-30T18:19:40;18.90;;;6.77;;
32826;SDS011;51059;42.058;27.986;2024-01-30T18:22:59;19.97;;;7.70;;
32826;SDS011;51059;42.058;27.986;2024-01-30T18:26:19;21.50;;;7.40;;
32826;SDS011;51059;42.058;27.986;2024-01-30T18:29:37;23.53;;;9.00;;
32826;SDS011;51059;42.058;27.986;2024-01-30T18:32:55;29.03;;;11.10;;
32826;SDS011;51059;42.058;27.986;2024-01-30T18:36:22;25.83;;;10.27;;
32826;SDS011;51059;42.058;27.986;2024-01-30T18:39:41;27.83;;;9.57;;
32826;SDS011;51059;42.058;27.986;2024-01-30T18:43:00;13.60;;;5.63;;
32826;SDS011;51059;42.058;27.986;2024-01-30T18:46:18;19.03;;;7.37;;
32826;SDS011;51059;42.058;27.986;2024-01-30T18:49:36;16.73;;;5.57;;
32826;SDS011;51059;42.058;27.986;2024-01-30T18:52:54;9.83;;;4.30;;
32826;SDS011;51059;42.058;27.986;2024-01-30T18:56:20;16.87;;;5.40;;
32826;SDS011;51059;42.058;27.986;2024-01-30T18:59:39;28.73;;;7.33;;
32826;SDS011;51059;42.058;27.986;2024-01-30T19:03:06;19.80;;;6.30;;
32826;SDS011;51059;42.058;27.986;2024-01-30T19:06:24;14.10;;;5.40;;
32826;SDS011;51059;42.058;27.986;2024-01-30T19:09:42;21.07;;;6.73;;
32826;SDS011;51059;42.058;27.986;2024-01-30T19:13:01;21.43;;;7.40;;
32826;SDS011;51059;42.058;27.986;2024-01-30T19:16:20;30.57;;;10.43;;
32826;SDS011;51059;42.058;27.986;2024-01-30T19:19:39;28.60;;;8.87;;
32826;SDS011;51059;42.058;27.986;2024-01-30T19:22:57;16.57;;;7.23;;
32826;SDS011;51059;42.058;27.986;2024-01-30T19:26:18;19.63;;;7.33;;
32826;SDS011;51059;42.058;27.986;2024-01-30T19:29:36;17.70;;;6.20;;
32826;SDS011;51059;42.058;27.986;2024-01-30T19:32:54;19.70;;;5.77;;
32826;SDS011;51059;42.058;27.986;2024-01-30T19:36:13;17.60;;;6.13;;
32826;SDS011;51059;42.058;27.986;2024-01-30T19:39:31;12.57;;;4.60;;
32826;SDS011;51059;42.058;27.986;2024-01-30T19:42:50;11.90;;;5.47;;
32826;SDS011;51059;42.058;27.986;2024-01-30T19:46:11;18.93;;;7.43;;
32826;SDS011;51059;42.058;27.986;2024-01-30T19:49:35;19.77;;;7.87;;
32826;SDS011;51059;42.058;27.986;2024-01-30T19:52:54;22.63;;;8.63;;
32826;SDS011;51059;42.058;27.986;2024-01-30T19:56:12;15.77;;;6.63;;
32826;SDS011;51059;42.058;27.986;2024-01-30T19:59:30;19.10;;;6.53;;
32826;SDS011;51059;42.058;27.986;2024-01-30T20:02:50;17.40;;;7.30;;
32826;SDS011;51059;42.058;27.986;2024-01-30T20:06:08;18.73;;;7.33;;
32826;SDS011;51059;42.058;27.986;2024-01-30T20:09:27;19.10;;;8.37;;
32826;SDS011;51059;42.058;27.986;2024-01-30T20:12:45;19.67;;;7.77;;
32826;SDS011;51059;42.058;27.986;2024-01-30T20:16:05;18.33;;;7.13;;
32826;SDS011;51059;42.058;27.986;2024-01-30T20:19:25;19.10;;;7.37;;
32826;SDS011;51059;42.058;27.986;2024-01-30T20:22:44;19.03;;;7.87;;
32826;SDS011;51059;42.058;27.986;2024-01-30T20:26:03;21.50;;;7.73;;
32826;SDS011;51059;42.058;27.986;2024-01-30T20:29:21;14.37;;;7.07;;
32826;SDS011;51059;42.058;27.986;2024-01-30T20:32:42;24.67;;;8.63;;
32826;SDS011;51059;42.058;27.986;2024-01-30T20:36:02;21.43;;;8.47;;
32826;SDS011;51059;42.058;27.986;2024-01-30T20:39:21;17.37;;;7.43;;
32826;SDS011;51059;42.058;27.986;2024-01-30T20:42:41;16.27;;;6.80;;
32826;SDS011;51059;42.058;27.986;2024-01-30T20:45:59;18.87;;;7.77;;
32826;SDS011;51059;42.058;27.986;2024-01-30T20:49:19;20.60;;;8.90;;
32826;SDS011;51059;42.058;27.986;2024-01-30T20:52:38;16.10;;;7.90;;
32826;SDS011;51059;42.058;27.986;2024-01-30T20:55:57;17.50;;;7.07;;
32826;SDS011;51059;42.058;27.986;2024-01-30T20:59:15;25.27;;;10.17;;
32826;SDS011;51059;42.058;27.986;2024-01-30T21:02:34;29.03;;;9.97;;